sensor_id;sensor_type;location;lat;lon;timestamp;temperature;humidity
3100;DHT22;1560;52.746;13.474;2023-06-10T00:02:22;16.40;1.00
3100;DHT22;1560;52.746;13.474;2023-06-10T00:05:02;16.40;1.00
3100;DHT22;1560;52.746;13.474;2023-06-10T00:07:42;16.50;1.00
3100;DHT22;1560;52.746;13.474;2023-06-10T00:23:34;16.40;1.00
3100;DHT22;1560;52.746;13.474;2023-06-10T00:34:45;16.10;1.00
3100;DHT22;1560;52.746;13.474;2023-06-10T00:40:33;16.20;1.00
3100;DHT22;1560;52.746;13.474;2023-06-10T00:43:13;16.30;1.00
3100;DHT22;1560;52.746;13.474;2023-06-10T00:46:09;16.20;1.00
3100;DHT22;1560;52.746;13.474;2023-06-10T01:02:43;16.20;1.00
3100;DHT22;1560;52.746;13.474;2023-06-10T01:05:20;16.10;1.00
3100;DHT22;1560;52.746;13.474;2023-06-10T01:08:23;16.00;1.00
3100;DHT22;1560;52.746;13.474;2023-06-10T01:24:50;15.80;1.00
3100;DHT22;1560;52.746;13.474;2023-06-10T01:27:58;15.70;1.00
3100;DHT22;1560;52.746;13.474;2023-06-10T01:33:41;15.70;1.00
3100;DHT22;1560;52.746;13.474;2023-06-10T01:36:15;15.70;1.00
3100;DHT22;1560;52.746;13.474;2023-06-10T01:56:01;15.60;1.00
3100;DHT22;1560;52.746;13.474;2023-06-10T01:58:46;15.40;1.00
3100;DHT22;1560;52.746;13.474;2023-06-10T02:01:23;15.40;1.00
3100;DHT22;1560;52.746;13.474;2023-06-10T02:04:00;15.50;1.00
3100;DHT22;1560;52.746;13.474;2023-06-10T02:06:32;15.30;1.00
3100;DHT22;1560;52.746;13.474;2023-06-10T02:12:10;15.40;1.00
3100;DHT22;1560;52.746;13.474;2023-06-10T02:17:30;15.30;1.00
3100;DHT22;1560;52.746;13.474;2023-06-10T02:20:08;15.30;1.00
3100;DHT22;1560;52.746;13.474;2023-06-10T02:25:16;15.20;1.00
3100;DHT22;1560;52.746;13.474;2023-06-10T02:27:54;15.30;1.00
3100;DHT22;1560;52.746;13.474;2023-06-10T02:30:23;15.20;1.00
3100;DHT22;1560;52.746;13.474;2023-06-10T02:32:56;15.10;1.00
3100;DHT22;1560;52.746;13.474;2023-06-10T02:40:59;15.20;1.00
3100;DHT22;1560;52.746;13.474;2023-06-10T02:43:31;15.20;1.00
3100;DHT22;1560;52.746;13.474;2023-06-10T02:46:03;15.30;1.00
3100;DHT22;1560;52.746;13.474;2023-06-10T02:48:38;15.30;1.00
3100;DHT22;1560;52.746;13.474;2023-06-10T02:56:53;15.00;1.00
3100;DHT22;1560;52.746;13.474;2023-06-10T02:59:32;14.90;11.10
3100;DHT22;1560;52.746;13.474;2023-06-10T03:02:08;14.90;26.50
3100;DHT22;1560;52.746;13.474;2023-06-10T03:07:20;14.90;1.00
3100;DHT22;1560;52.746;13.474;2023-06-10T03:12:33;15.10;1.00
3100;DHT22;1560;52.746;13.474;2023-06-10T03:15:13;15.00;1.00
3100;DHT22;1560;52.746;13.474;2023-06-10T03:17:48;15.00;1.00
3100;DHT22;1560;52.746;13.474;2023-06-10T03:23:15;14.80;27.70
3100;DHT22;1560;52.746;13.474;2023-06-10T03:26:06;14.80;19.30
3100;DHT22;1560;52.746;13.474;2023-06-10T03:28:43;14.80;1.00
3100;DHT22;1560;52.746;13.474;2023-06-10T03:33:58;14.90;1.00
3100;DHT22;1560;52.746;13.474;2023-06-10T03:36:33;15.00;1.00
3100;DHT22;1560;52.746;13.474;2023-06-10T03:39:12;14.90;1.00
3100;DHT22;1560;52.746;13.474;2023-06-10T03:42:13;15.00;1.00
3100;DHT22;1560;52.746;13.474;2023-06-10T03:44:44;14.90;1.00
3100;DHT22;1560;52.746;13.474;2023-06-10T03:47:17;14.80;45.00
3100;DHT22;1560;52.746;13.474;2023-06-10T03:49:49;14.80;15.10
3100;DHT22;1560;52.746;13.474;2023-06-10T03:55:06;14.80;1.00
3100;DHT22;1560;52.746;13.474;2023-06-10T03:57:37;14.80;1.00
3100;DHT22;1560;52.746;13.474;2023-06-10T04:00:22;14.80;1.00
3100;DHT22;1560;52.746;13.474;2023-06-10T04:02:57;14.90;1.00
3100;DHT22;1560;52.746;13.474;2023-06-10T04:05:28;14.90;1.00
3100;DHT22;1560;52.746;13.474;2023-06-10T04:08:00;14.90;30.00
3100;DHT22;1560;52.746;13.474;2023-06-10T04:10:30;14.90;47.80
3100;DHT22;1560;52.746;13.474;2023-06-10T04:13:00;14.80;99.90
3100;DHT22;1560;52.746;13.474;2023-06-10T04:15:30;14.80;90.10
3100;DHT22;1560;52.746;13.474;2023-06-10T04:18:02;14.80;99.90
3100;DHT22;1560;52.746;13.474;2023-06-10T04:20:33;14.80;99.90
3100;DHT22;1560;52.746;13.474;2023-06-10T05:30:03;15.60;99.90
3100;DHT22;1560;52.746;13.474;2023-06-10T05:35:10;15.70;99.90
3100;DHT22;1560;52.746;13.474;2023-06-10T05:37:39;15.80;99.90
3100;DHT22;1560;52.746;13.474;2023-06-10T05:40:10;15.90;99.90
3100;DHT22;1560;52.746;13.474;2023-06-10T05:45:28;15.90;99.90
3100;DHT22;1560;52.746;13.474;2023-06-10T05:47:57;16.00;99.90
3100;DHT22;1560;52.746;13.474;2023-06-10T05:50:26;16.10;99.90
3100;DHT22;1560;52.746;13.474;2023-06-10T05:52:54;16.10;99.90
3100;DHT22;1560;52.746;13.474;2023-06-10T05:58:05;16.20;99.90
3100;DHT22;1560;52.746;13.474;2023-06-10T06:00:37;16.40;99.90
3100;DHT22;1560;52.746;13.474;2023-06-10T06:03:07;16.40;99.90
3100;DHT22;1560;52.746;13.474;2023-06-10T06:05:39;16.50;99.90
3100;DHT22;1560;52.746;13.474;2023-06-10T06:08:10;16.60;33.40
3100;DHT22;1560;52.746;13.474;2023-06-10T06:10:44;16.70;1.00
3100;DHT22;1560;52.746;13.474;2023-06-10T06:26:59;16.90;2.10
3100;DHT22;1560;52.746;13.474;2023-06-10T06:32:10;17.30;1.00
3100;DHT22;1560;52.746;13.474;2023-06-10T06:34:41;17.30;1.00
3100;DHT22;1560;52.746;13.474;2023-06-10T06:37:12;17.30;1.00
3100;DHT22;1560;52.746;13.474;2023-06-10T06:39:44;17.40;1.00
3100;DHT22;1560;52.746;13.474;2023-06-10T06:42:15;17.40;1.00
3100;DHT22;1560;52.746;13.474;2023-06-10T06:47:25;17.50;1.00
3100;DHT22;1560;52.746;13.474;2023-06-10T06:49:57;17.60;1.00
3100;DHT22;1560;52.746;13.474;2023-06-10T06:52:30;17.60;1.00
3100;DHT22;1560;52.746;13.474;2023-06-10T06:54:59;17.50;1.00
3100;DHT22;1560;52.746;13.474;2023-06-10T06:57:31;17.50;1.00
3100;DHT22;1560;52.746;13.474;2023-06-10T07:00:00;17.50;1.00
3100;DHT22;1560;52.746;13.474;2023-06-10T07:02:29;17.60;1.00
3100;DHT22;1560;52.746;13.474;2023-06-10T07:05:02;17.70;1.00
3100;DHT22;1560;52.746;13.474;2023-06-10T07:07:31;17.80;1.00
3100;DHT22;1560;52.746;13.474;2023-06-10T07:10:01;17.90;1.00
3100;DHT22;1560;52.746;13.474;2023-06-10T07:12:30;18.00;1.00
3100;DHT22;1560;52.746;13.474;2023-06-10T07:14:59;18.00;1.00
3100;DHT22;1560;52.746;13.474;2023-06-10T07:17:32;18.10;1.00
3100;DHT22;1560;52.746;13.474;2023-06-10T07:20:15;18.20;1.00
3100;DHT22;1560;52.746;13.474;2023-06-10T07:22:45;18.40;1.00
3100;DHT22;1560;52.746;13.474;2023-06-10T07:25:20;18.50;1.00
3100;DHT22;1560;52.746;13.474;2023-06-10T07:27:49;18.70;1.00
3100;DHT22;1560;52.746;13.474;2023-06-10T07:32:56;19.00;1.00
3100;DHT22;1560;52.746;13.474;2023-06-10T07:35:25;19.20;99.90
3100;DHT22;1560;52.746;13.474;2023-06-10T07:37:54;19.20;99.90
3100;DHT22;1560;52.746;13.474;2023-06-10T07:40:24;19.30;99.90
3100;DHT22;1560;52.746;13.474;2023-06-10T07:42:54;19.30;99.90
3100;DHT22;1560;52.746;13.474;2023-06-10T07:45:27;19.40;99.90
3100;DHT22;1560;52.746;13.474;2023-06-10T07:47:56;19.40;99.90
3100;DHT22;1560;52.746;13.474;2023-06-10T07:50:25;19.40;1.00
3100;DHT22;1560;52.746;13.474;2023-06-10T07:52:54;19.50;1.00
3100;DHT22;1560;52.746;13.474;2023-06-10T08:08:27;19.60;99.90
3100;DHT22;1560;52.746;13.474;2023-06-10T08:13:36;19.40;99.90
3100;DHT22;1560;52.746;13.474;2023-06-10T08:16:05;19.40;99.90
3100;DHT22;1560;52.746;13.474;2023-06-10T08:18:41;19.40;99.90
3100;DHT22;1560;52.746;13.474;2023-06-10T08:21:11;19.20;99.90
3100;DHT22;1560;52.746;13.474;2023-06-10T08:23:40;19.00;99.90
3100;DHT22;1560;52.746;13.474;2023-06-10T08:26:13;19.00;99.90
3100;DHT22;1560;52.746;13.474;2023-06-10T08:28:42;19.10;99.90
3100;DHT22;1560;52.746;13.474;2023-06-10T08:33:48;19.20;1.00
3100;DHT22;1560;52.746;13.474;2023-06-10T08:36:18;19.10;99.90
3100;DHT22;1560;52.746;13.474;2023-06-10T08:38:55;19.10;1.00
3100;DHT22;1560;52.746;13.474;2023-06-10T08:44:25;19.30;1.00
3100;DHT22;1560;52.746;13.474;2023-06-10T08:49:34;19.20;99.90
3100;DHT22;1560;52.746;13.474;2023-06-10T08:52:08;19.10;99.90
3100;DHT22;1560;52.746;13.474;2023-06-10T08:54:42;19.00;99.90
3100;DHT22;1560;52.746;13.474;2023-06-10T08:57:11;18.90;1.00
3100;DHT22;1560;52.746;13.474;2023-06-10T08:59:41;18.90;1.00
3100;DHT22;1560;52.746;13.474;2023-06-10T09:02:12;18.90;1.00
3100;DHT22;1560;52.746;13.474;2023-06-10T09:07:20;19.10;1.00
3100;DHT22;1560;52.746;13.474;2023-06-10T09:12:29;19.20;1.00
3100;DHT22;1560;52.746;13.474;2023-06-10T09:15:01;19.20;1.00
3100;DHT22;1560;52.746;13.474;2023-06-10T09:17:30;19.20;1.00
3100;DHT22;1560;52.746;13.474;2023-06-10T09:22:42;19.30;1.00
3100;DHT22;1560;52.746;13.474;2023-06-10T09:25:29;19.30;1.00
3100;DHT22;1560;52.746;13.474;2023-06-10T09:27:56;19.20;1.00
3100;DHT22;1560;52.746;13.474;2023-06-10T09:30:31;19.30;1.00
3100;DHT22;1560;52.746;13.474;2023-06-10T09:35:45;19.30;1.00
3100;DHT22;1560;52.746;13.474;2023-06-10T09:38:19;19.30;1.00
3100;DHT22;1560;52.746;13.474;2023-06-10T09:40:51;19.40;1.00
3100;DHT22;1560;52.746;13.474;2023-06-10T09:43:39;19.50;1.00
3100;DHT22;1560;52.746;13.474;2023-06-10T09:46:16;19.50;1.00
3100;DHT22;1560;52.746;13.474;2023-06-10T09:48:47;19.60;1.00
3100;DHT22;1560;52.746;13.474;2023-06-10T09:51:25;19.50;99.90
3100;DHT22;1560;52.746;13.474;2023-06-10T09:56:36;19.50;1.00
3100;DHT22;1560;52.746;13.474;2023-06-10T09:59:05;19.50;1.00
3100;DHT22;1560;52.746;13.474;2023-06-10T10:01:34;19.50;1.00
3100;DHT22;1560;52.746;13.474;2023-06-10T10:06:45;19.30;1.00
3100;DHT22;1560;52.746;13.474;2023-06-10T10:11:56;19.20;1.00
3100;DHT22;1560;52.746;13.474;2023-06-10T10:14:27;19.30;1.00
3100;DHT22;1560;52.746;13.474;2023-06-10T10:16:57;19.40;1.00
3100;DHT22;1560;52.746;13.474;2023-06-10T10:19:30;19.30;1.00
3100;DHT22;1560;52.746;13.474;2023-06-10T10:22:06;19.20;1.00
3100;DHT22;1560;52.746;13.474;2023-06-10T10:24:39;19.20;1.00
3100;DHT22;1560;52.746;13.474;2023-06-10T10:29:51;19.10;63.00
3100;DHT22;1560;52.746;13.474;2023-06-10T10:35:07;19.00;95.90
3100;DHT22;1560;52.746;13.474;2023-06-10T10:37:40;19.00;99.90
3100;DHT22;1560;52.746;13.474;2023-06-10T10:40:11;19.10;99.90
3100;DHT22;1560;52.746;13.474;2023-06-10T10:42:40;19.10;99.90
3100;DHT22;1560;52.746;13.474;2023-06-10T10:47:51;19.00;99.90
3100;DHT22;1560;52.746;13.474;2023-06-10T10:50:20;18.90;99.90
3100;DHT22;1560;52.746;13.474;2023-06-10T10:55:34;18.90;99.90
3100;DHT22;1560;52.746;13.474;2023-06-10T10:58:05;19.00;99.90
3100;DHT22;1560;52.746;13.474;2023-06-10T11:00:36;19.10;99.90
3100;DHT22;1560;52.746;13.474;2023-06-10T11:03:13;19.20;99.90
3100;DHT22;1560;52.746;13.474;2023-06-10T11:05:41;19.30;99.90
3100;DHT22;1560;52.746;13.474;2023-06-10T11:08:12;19.40;99.90
3100;DHT22;1560;52.746;13.474;2023-06-10T11:10:50;19.50;99.90
3100;DHT22;1560;52.746;13.474;2023-06-10T11:13:15;19.50;99.90
3100;DHT22;1560;52.746;13.474;2023-06-10T11:15:45;19.50;99.90
3100;DHT22;1560;52.746;13.474;2023-06-10T11:18:20;19.60;99.90
3100;DHT22;1560;52.746;13.474;2023-06-10T11:20:57;19.70;99.90
3100;DHT22;1560;52.746;13.474;2023-06-10T11:23:41;19.80;99.90
3100;DHT22;1560;52.746;13.474;2023-06-10T11:26:30;19.90;99.90
3100;DHT22;1560;52.746;13.474;2023-06-10T11:31:45;20.10;99.90
3100;DHT22;1560;52.746;13.474;2023-06-10T11:34:20;20.30;99.90
3100;DHT22;1560;52.746;13.474;2023-06-10T11:36:46;20.60;99.90
3100;DHT22;1560;52.746;13.474;2023-06-10T11:39:15;20.80;99.90
3100;DHT22;1560;52.746;13.474;2023-06-10T11:41:46;21.20;99.90
3100;DHT22;1560;52.746;13.474;2023-06-10T11:44:15;21.40;99.90
3100;DHT22;1560;52.746;13.474;2023-06-10T11:46:44;21.80;99.90
3100;DHT22;1560;52.746;13.474;2023-06-10T11:49:21;22.40;99.90
3100;DHT22;1560;52.746;13.474;2023-06-10T11:51:55;22.80;99.90
3100;DHT22;1560;52.746;13.474;2023-06-10T11:57:08;23.30;1.00
3100;DHT22;1560;52.746;13.474;2023-06-10T11:59:37;23.30;1.00
3100;DHT22;1560;52.746;13.474;2023-06-10T12:04:48;23.60;1.00
3100;DHT22;1560;52.746;13.474;2023-06-10T12:10:31;24.10;1.00
3100;DHT22;1560;52.746;13.474;2023-06-10T12:12:59;24.50;99.90
3100;DHT22;1560;52.746;13.474;2023-06-10T12:15:28;24.70;99.90
3100;DHT22;1560;52.746;13.474;2023-06-10T12:18:02;24.50;99.90
3100;DHT22;1560;52.746;13.474;2023-06-10T12:20:35;24.50;99.90
3100;DHT22;1560;52.746;13.474;2023-06-10T12:23:10;24.50;99.90
3100;DHT22;1560;52.746;13.474;2023-06-10T12:25:51;24.30;99.90
3100;DHT22;1560;52.746;13.474;2023-06-10T12:28:22;24.50;99.90
3100;DHT22;1560;52.746;13.474;2023-06-10T12:31:08;24.90;99.90
3100;DHT22;1560;52.746;13.474;2023-06-10T12:36:17;25.30;99.90
3100;DHT22;1560;52.746;13.474;2023-06-10T12:38:48;25.40;99.90
3100;DHT22;1560;52.746;13.474;2023-06-10T12:41:20;25.60;99.90
3100;DHT22;1560;52.746;13.474;2023-06-10T12:44:01;25.70;99.90
3100;DHT22;1560;52.746;13.474;2023-06-10T12:46:37;25.80;99.90
3100;DHT22;1560;52.746;13.474;2023-06-10T12:51:45;26.20;99.90
3100;DHT22;1560;52.746;13.474;2023-06-10T12:56:59;26.30;1.00
3100;DHT22;1560;52.746;13.474;2023-06-10T12:59:28;26.30;99.90
3100;DHT22;1560;52.746;13.474;2023-06-10T13:04:34;26.30;99.90
3100;DHT22;1560;52.746;13.474;2023-06-10T13:07:03;26.40;99.90
3100;DHT22;1560;52.746;13.474;2023-06-10T13:09:36;26.40;99.90
3100;DHT22;1560;52.746;13.474;2023-06-10T13:15:03;26.60;99.90
3100;DHT22;1560;52.746;13.474;2023-06-10T13:17:35;26.60;99.90
3100;DHT22;1560;52.746;13.474;2023-06-10T13:20:09;26.70;99.90
3100;DHT22;1560;52.746;13.474;2023-06-10T13:22:41;26.90;99.90
3100;DHT22;1560;52.746;13.474;2023-06-10T13:27:53;27.00;99.90
3100;DHT22;1560;52.746;13.474;2023-06-10T13:30:23;27.00;99.90
3100;DHT22;1560;52.746;13.474;2023-06-10T13:33:01;27.10;99.90
3100;DHT22;1560;52.746;13.474;2023-06-10T13:35:31;27.10;99.90
3100;DHT22;1560;52.746;13.474;2023-06-10T13:40:49;27.10;99.90
3100;DHT22;1560;52.746;13.474;2023-06-10T13:46:03;26.90;99.90
3100;DHT22;1560;52.746;13.474;2023-06-10T13:48:36;26.80;99.90
3100;DHT22;1560;52.746;13.474;2023-06-10T13:51:05;26.80;99.90
3100;DHT22;1560;52.746;13.474;2023-06-10T13:53:36;26.60;99.90
3100;DHT22;1560;52.746;13.474;2023-06-10T13:56:06;26.20;1.00
3100;DHT22;1560;52.746;13.474;2023-06-10T13:58:35;25.80;99.90
3100;DHT22;1560;52.746;13.474;2023-06-10T14:03:43;24.80;1.00
3100;DHT22;1560;52.746;13.474;2023-06-10T14:06:17;24.70;1.00
3100;DHT22;1560;52.746;13.474;2023-06-10T14:08:46;24.60;99.90
3100;DHT22;1560;52.746;13.474;2023-06-10T14:16:33;24.40;99.90
3100;DHT22;1560;52.746;13.474;2023-06-10T14:21:42;24.60;99.90
3100;DHT22;1560;52.746;13.474;2023-06-10T14:24:11;24.60;99.90
3100;DHT22;1560;52.746;13.474;2023-06-10T14:26:41;24.70;99.90
3100;DHT22;1560;52.746;13.474;2023-06-10T14:29:10;24.90;99.90
3100;DHT22;1560;52.746;13.474;2023-06-10T14:31:40;24.90;99.90
3100;DHT22;1560;52.746;13.474;2023-06-10T14:36:49;25.10;99.90
3100;DHT22;1560;52.746;13.474;2023-06-10T14:39:19;25.10;99.90
3100;DHT22;1560;52.746;13.474;2023-06-10T14:41:49;25.00;99.90
3100;DHT22;1560;52.746;13.474;2023-06-10T14:44:21;24.80;1.00
3100;DHT22;1560;52.746;13.474;2023-06-10T14:46:49;24.80;99.90
3100;DHT22;1560;52.746;13.474;2023-06-10T14:49:18;24.80;99.90
3100;DHT22;1560;52.746;13.474;2023-06-10T14:54:26;24.80;1.00
3100;DHT22;1560;52.746;13.474;2023-06-10T14:59:32;24.90;1.00
3100;DHT22;1560;52.746;13.474;2023-06-10T15:04:44;24.90;1.00
3100;DHT22;1560;52.746;13.474;2023-06-10T15:09:54;24.90;1.00
3100;DHT22;1560;52.746;13.474;2023-06-10T15:12:23;24.90;1.00
3100;DHT22;1560;52.746;13.474;2023-06-10T15:14:52;25.00;1.00
3100;DHT22;1560;52.746;13.474;2023-06-10T15:17:21;25.00;1.00
3100;DHT22;1560;52.746;13.474;2023-06-10T15:19:49;25.00;1.00
3100;DHT22;1560;52.746;13.474;2023-06-10T15:22:21;24.90;1.00
3100;DHT22;1560;52.746;13.474;2023-06-10T15:24:52;24.80;1.00
3100;DHT22;1560;52.746;13.474;2023-06-10T15:30:08;24.60;1.00
3100;DHT22;1560;52.746;13.474;2023-06-10T15:32:37;24.50;1.00
3100;DHT22;1560;52.746;13.474;2023-06-10T15:35:07;24.60;1.00
3100;DHT22;1560;52.746;13.474;2023-06-10T15:37:37;24.60;1.00
3100;DHT22;1560;52.746;13.474;2023-06-10T15:40:08;24.60;1.00
3100;DHT22;1560;52.746;13.474;2023-06-10T15:42:37;24.70;1.00
3100;DHT22;1560;52.746;13.474;2023-06-10T15:45:07;24.80;1.00
3100;DHT22;1560;52.746;13.474;2023-06-10T15:47:36;24.90;99.90
3100;DHT22;1560;52.746;13.474;2023-06-10T15:50:06;25.10;99.90
3100;DHT22;1560;52.746;13.474;2023-06-10T15:52:35;25.10;25.90
3100;DHT22;1560;52.746;13.474;2023-06-10T15:55:05;25.10;99.90
3100;DHT22;1560;52.746;13.474;2023-06-10T15:57:37;25.20;99.90
3100;DHT22;1560;52.746;13.474;2023-06-10T16:00:07;25.20;99.90
3100;DHT22;1560;52.746;13.474;2023-06-10T16:02:36;25.20;99.90
3100;DHT22;1560;52.746;13.474;2023-06-10T16:05:06;25.20;99.90
3100;DHT22;1560;52.746;13.474;2023-06-10T16:07:36;25.40;99.90
3100;DHT22;1560;52.746;13.474;2023-06-10T16:12:52;25.40;99.90
3100;DHT22;1560;52.746;13.474;2023-06-10T16:15:20;25.40;99.90
3100;DHT22;1560;52.746;13.474;2023-06-10T16:17:49;25.40;99.90
3100;DHT22;1560;52.746;13.474;2023-06-10T16:20:19;25.50;99.90
3100;DHT22;1560;52.746;13.474;2023-06-10T16:22:48;25.40;99.90
3100;DHT22;1560;52.746;13.474;2023-06-10T16:28:02;25.40;99.90
3100;DHT22;1560;52.746;13.474;2023-06-10T16:30:30;25.40;99.90
3100;DHT22;1560;52.746;13.474;2023-06-10T16:35:42;25.40;99.90
3100;DHT22;1560;52.746;13.474;2023-06-10T16:38:11;25.30;99.90
3100;DHT22;1560;52.746;13.474;2023-06-10T16:40:39;25.20;99.90
3100;DHT22;1560;52.746;13.474;2023-06-10T16:45:52;25.20;99.90
3100;DHT22;1560;52.746;13.474;2023-06-10T16:51:00;25.20;99.90
3100;DHT22;1560;52.746;13.474;2023-06-10T16:56:08;25.30;99.90
3100;DHT22;1560;52.746;13.474;2023-06-10T16:58:37;25.30;99.90
3100;DHT22;1560;52.746;13.474;2023-06-10T17:01:13;25.30;99.90
3100;DHT22;1560;52.746;13.474;2023-06-10T17:06:21;25.20;99.90
3100;DHT22;1560;52.746;13.474;2023-06-10T17:08:51;25.10;99.90
3100;DHT22;1560;52.746;13.474;2023-06-10T17:11:20;25.00;99.90
3100;DHT22;1560;52.746;13.474;2023-06-10T17:16:28;25.00;99.90
3100;DHT22;1560;52.746;13.474;2023-06-10T17:18:57;24.90;99.90
3100;DHT22;1560;52.746;13.474;2023-06-10T17:21:29;24.90;99.90
3100;DHT22;1560;52.746;13.474;2023-06-10T17:23:59;24.90;99.90
3100;DHT22;1560;52.746;13.474;2023-06-10T17:29:13;24.70;99.90
3100;DHT22;1560;52.746;13.474;2023-06-10T17:31:42;24.70;99.90
3100;DHT22;1560;52.746;13.474;2023-06-10T17:34:11;24.70;99.90
3100;DHT22;1560;52.746;13.474;2023-06-10T17:36:44;24.60;99.90
3100;DHT22;1560;52.746;13.474;2023-06-10T17:41:53;24.50;99.90
3100;DHT22;1560;52.746;13.474;2023-06-10T17:44:24;24.40;99.90
3100;DHT22;1560;52.746;13.474;2023-06-10T17:46:55;24.30;99.90
3100;DHT22;1560;52.746;13.474;2023-06-10T17:52:08;24.20;99.90
3100;DHT22;1560;52.746;13.474;2023-06-10T17:54:40;24.20;99.90
3100;DHT22;1560;52.746;13.474;2023-06-10T17:59:50;23.90;99.90
3100;DHT22;1560;52.746;13.474;2023-06-10T18:02:19;23.90;99.90
3100;DHT22;1560;52.746;13.474;2023-06-10T18:04:48;23.90;99.90
3100;DHT22;1560;52.746;13.474;2023-06-10T18:07:18;23.90;99.90
3100;DHT22;1560;52.746;13.474;2023-06-10T18:09:47;23.90;99.90
3100;DHT22;1560;52.746;13.474;2023-06-10T18:12:16;23.70;99.90
3100;DHT22;1560;52.746;13.474;2023-06-10T18:14:47;23.70;99.90
3100;DHT22;1560;52.746;13.474;2023-06-10T18:17:16;23.70;99.90
3100;DHT22;1560;52.746;13.474;2023-06-10T18:19:48;23.70;99.90
3100;DHT22;1560;52.746;13.474;2023-06-10T18:22:20;23.60;99.90
3100;DHT22;1560;52.746;13.474;2023-06-10T18:24:52;23.60;99.90
3100;DHT22;1560;52.746;13.474;2023-06-10T18:27:21;23.60;99.90
3100;DHT22;1560;52.746;13.474;2023-06-10T18:29:53;23.60;99.90
3100;DHT22;1560;52.746;13.474;2023-06-10T18:32:23;23.50;99.90
3100;DHT22;1560;52.746;13.474;2023-06-10T18:34:52;23.50;99.90
3100;DHT22;1560;52.746;13.474;2023-06-10T18:37:21;23.50;99.90
3100;DHT22;1560;52.746;13.474;2023-06-10T18:39:50;23.50;99.90
3100;DHT22;1560;52.746;13.474;2023-06-10T18:42:24;23.40;99.90
3100;DHT22;1560;52.746;13.474;2023-06-10T18:44:53;23.40;99.90
3100;DHT22;1560;52.746;13.474;2023-06-10T18:50:01;23.10;99.90
3100;DHT22;1560;52.746;13.474;2023-06-10T18:52:30;23.10;99.90
3100;DHT22;1560;52.746;13.474;2023-06-10T18:54:59;23.10;99.90
3100;DHT22;1560;52.746;13.474;2023-06-10T18:57:28;23.10;99.90
3100;DHT22;1560;52.746;13.474;2023-06-10T18:59:58;23.10;99.90
3100;DHT22;1560;52.746;13.474;2023-06-10T19:02:27;23.00;99.90
3100;DHT22;1560;52.746;13.474;2023-06-10T19:07:33;22.90;99.90
3100;DHT22;1560;52.746;13.474;2023-06-10T19:10:03;22.80;99.90
3100;DHT22;1560;52.746;13.474;2023-06-10T19:12:32;22.80;1.00
3100;DHT22;1560;52.746;13.474;2023-06-10T19:15:00;22.70;99.90
3100;DHT22;1560;52.746;13.474;2023-06-10T19:17:29;22.70;99.90
3100;DHT22;1560;52.746;13.474;2023-06-10T19:19:58;22.60;99.90
3100;DHT22;1560;52.746;13.474;2023-06-10T19:25:10;22.50;1.00
3100;DHT22;1560;52.746;13.474;2023-06-10T19:27:39;22.40;1.00
3100;DHT22;1560;52.746;13.474;2023-06-10T19:30:10;22.40;99.90
3100;DHT22;1560;52.746;13.474;2023-06-10T19:35:16;22.20;99.90
3100;DHT22;1560;52.746;13.474;2023-06-10T19:37:45;22.20;99.90
3100;DHT22;1560;52.746;13.474;2023-06-10T19:40:16;22.00;99.90
3100;DHT22;1560;52.746;13.474;2023-06-10T19:42:45;22.00;99.90
3100;DHT22;1560;52.746;13.474;2023-06-10T19:45:14;21.90;99.90
3100;DHT22;1560;52.746;13.474;2023-06-10T19:47:43;21.90;99.90
3100;DHT22;1560;52.746;13.474;2023-06-10T19:50:12;21.90;99.90
3100;DHT22;1560;52.746;13.474;2023-06-10T19:55:25;21.70;99.90
3100;DHT22;1560;52.746;13.474;2023-06-10T19:57:54;21.70;99.90
3100;DHT22;1560;52.746;13.474;2023-06-10T20:03:03;21.60;99.90
3100;DHT22;1560;52.746;13.474;2023-06-10T20:05:32;21.50;99.90
3100;DHT22;1560;52.746;13.474;2023-06-10T20:10:44;21.40;99.90
3100;DHT22;1560;52.746;13.474;2023-06-10T20:15:57;21.30;99.90
3100;DHT22;1560;52.746;13.474;2023-06-10T20:18:26;21.30;99.90
3100;DHT22;1560;52.746;13.474;2023-06-10T20:20:55;21.20;99.90
3100;DHT22;1560;52.746;13.474;2023-06-10T20:23:30;21.20;99.90
3100;DHT22;1560;52.746;13.474;2023-06-10T20:26:00;21.10;99.90
3100;DHT22;1560;52.746;13.474;2023-06-10T20:28:29;21.00;99.90
3100;DHT22;1560;52.746;13.474;2023-06-10T20:31:00;21.00;99.90
3100;DHT22;1560;52.746;13.474;2023-06-10T20:33:39;20.90;99.90
3100;DHT22;1560;52.746;13.474;2023-06-10T20:36:08;20.90;99.90
3100;DHT22;1560;52.746;13.474;2023-06-10T20:38:37;20.80;99.90
3100;DHT22;1560;52.746;13.474;2023-06-10T20:41:05;20.80;99.90
3100;DHT22;1560;52.746;13.474;2023-06-10T20:46:12;20.60;99.90
3100;DHT22;1560;52.746;13.474;2023-06-10T20:48:41;20.60;99.90
3100;DHT22;1560;52.746;13.474;2023-06-10T20:51:12;20.50;99.90
3100;DHT22;1560;52.746;13.474;2023-06-10T20:56:28;20.40;99.90
3100;DHT22;1560;52.746;13.474;2023-06-10T20:58:57;20.30;99.90
3100;DHT22;1560;52.746;13.474;2023-06-10T21:01:26;20.30;99.90
3100;DHT22;1560;52.746;13.474;2023-06-10T21:03:59;20.20;99.90
3100;DHT22;1560;52.746;13.474;2023-06-10T21:09:07;20.10;99.90
3100;DHT22;1560;52.746;13.474;2023-06-10T21:11:37;20.10;99.90
3100;DHT22;1560;52.746;13.474;2023-06-10T21:14:07;20.10;99.90
3100;DHT22;1560;52.746;13.474;2023-06-10T21:19:20;19.90;99.90
3100;DHT22;1560;52.746;13.474;2023-06-10T21:21:49;19.80;99.90
3100;DHT22;1560;52.746;13.474;2023-06-10T21:24:18;19.90;99.90
3100;DHT22;1560;52.746;13.474;2023-06-10T21:26:47;19.80;99.90
3100;DHT22;1560;52.746;13.474;2023-06-10T21:29:16;19.80;99.90
3100;DHT22;1560;52.746;13.474;2023-06-10T21:31:45;19.60;99.90
3100;DHT22;1560;52.746;13.474;2023-06-10T21:34:16;19.60;99.90
3100;DHT22;1560;52.746;13.474;2023-06-10T21:39:24;19.60;99.90
3100;DHT22;1560;52.746;13.474;2023-06-10T21:41:53;19.60;99.90
3100;DHT22;1560;52.746;13.474;2023-06-10T21:44:22;19.50;99.90
3100;DHT22;1560;52.746;13.474;2023-06-10T21:46:51;19.40;99.90
3100;DHT22;1560;52.746;13.474;2023-06-10T21:49:20;19.30;99.90
3100;DHT22;1560;52.746;13.474;2023-06-10T21:51:49;19.30;99.90
3100;DHT22;1560;52.746;13.474;2023-06-10T21:54:19;19.20;99.90
3100;DHT22;1560;52.746;13.474;2023-06-10T21:56:48;19.20;99.90
3100;DHT22;1560;52.746;13.474;2023-06-10T21:59:20;19.10;99.90
3100;DHT22;1560;52.746;13.474;2023-06-10T22:01:49;19.00;99.90
3100;DHT22;1560;52.746;13.474;2023-06-10T22:04:18;19.00;99.90
3100;DHT22;1560;52.746;13.474;2023-06-10T22:06:47;19.00;99.90
3100;DHT22;1560;52.746;13.474;2023-06-10T22:09:16;19.00;99.90
3100;DHT22;1560;52.746;13.474;2023-06-10T22:11:46;18.90;99.90
3100;DHT22;1560;52.746;13.474;2023-06-10T22:14:15;18.90;99.90
3100;DHT22;1560;52.746;13.474;2023-06-10T22:19:23;18.70;99.90
3100;DHT22;1560;52.746;13.474;2023-06-10T22:21:54;18.70;99.90
3100;DHT22;1560;52.746;13.474;2023-06-10T22:24:23;18.60;99.90
3100;DHT22;1560;52.746;13.474;2023-06-10T22:26:52;18.60;99.90
3100;DHT22;1560;52.746;13.474;2023-06-10T22:29:21;18.60;99.90
3100;DHT22;1560;52.746;13.474;2023-06-10T22:31:53;18.60;99.90
3100;DHT22;1560;52.746;13.474;2023-06-10T22:34:25;18.60;99.90
3100;DHT22;1560;52.746;13.474;2023-06-10T22:36:54;18.40;99.90
3100;DHT22;1560;52.746;13.474;2023-06-10T22:39:25;18.40;98.80
3100;DHT22;1560;52.746;13.474;2023-06-10T22:41:54;18.40;99.20
3100;DHT22;1560;52.746;13.474;2023-06-10T22:44:27;18.30;99.90
3100;DHT22;1560;52.746;13.474;2023-06-10T22:46:56;18.30;99.90